Time;durP1;ratioP1;P1;durP2;ratioP2;P2;SDS_P1;SDS_P2;PMS_P1;PMS_P2;Temp;Humidity;BMP_temperature;BMP_pressure;BME280_temperature;BME280_humidity;BME280_pressure;Samples;Min_cycle;Max_cycle;Signal;HPM_P1;HPM_P2
2023/08/18 00:02:16;;;;;;;5.27;4.50;;;19.70;99.90;;;;;;5070310;28;20870;-68
2023/08/18 00:04:43;;;;;;;5.33;4.90;;;19.70;99.90;;;;;;5070419;28;20481;-68
2023/08/18 00:07:10;;;;;;;8.37;5.40;;;19.60;99.90;;;;;;5069671;28;20465;-67
2023/08/18 00:09:37;;;;;;;5.37;4.87;;;19.60;99.90;;;;;;5069858;28;20855;-68
2023/08/18 00:12:05;;;;;;;5.03;4.17;;;19.50;99.90;;;;;;5070092;28;20461;-68
2023/08/18 00:14:34;;;;;;;7.00;5.20;;;19.50;99.90;;;;;;5069949;28;20554;-68
2023/08/18 00:17:01;;;;;;;5.47;4.97;;;19.50;99.90;;;;;;5069813;28;20466;-68
2023/08/18 00:19:27;;;;;;;5.00;4.40;;;19.50;99.90;;;;;;5069534;28;20480;-68
2023/08/18 00:21:54;;;;;;;4.40;4.00;;;19.50;99.90;;;;;;5069888;28;20807;-67
2023/08/18 00:24:21;;;;;;;4.27;3.57;;;19.40;99.90;;;;;;5069925;28;20457;-68
2023/08/18 00:26:48;;;;;;;4.27;3.87;;;19.40;99.90;;;;;;5069961;28;20465;-68
2023/08/18 00:29:15;;;;;;;3.80;3.50;;;19.40;99.90;;;;;;5068804;28;20563;-67
2023/08/18 00:31:43;;;;;;;3.70;3.40;;;19.40;99.90;;;;;;5070137;28;20455;-68
2023/08/18 00:34:10;;;;;;;5.40;4.07;;;19.30;99.90;;;;;;5069755;28;20484;-68
2023/08/18 00:36:37;;;;;;;5.40;5.00;;;19.30;99.90;;;;;;5069669;28;20480;-68
2023/08/18 00:39:04;;;;;;;4.73;3.93;;;19.20;99.90;;;;;;5069459;28;21018;-68
2023/08/18 00:41:31;;;;;;;4.37;4.00;;;19.20;99.90;;;;;;5069607;28;20474;-68
2023/08/18 00:43:58;;;;;;;4.00;3.50;;;19.20;99.90;;;;;;5069619;28;20544;-68
2023/08/18 00:46:25;;;;;;;4.13;3.73;;;19.10;99.90;;;;;;5069755;28;20823;-68
2023/08/18 00:48:53;;;;;;;4.77;4.20;;;19.10;99.90;;;;;;5069674;28;20476;-68
2023/08/18 00:51:21;;;;;;;5.10;4.33;;;19.10;99.90;;;;;;5069389;28;20463;-68
2023/08/18 00:53:48;;;;;;;4.63;4.17;;;19.00;99.90;;;;;;5069660;28;20827;-68
2023/08/18 00:56:15;;;;;;;4.80;4.30;;;19.00;99.90;;;;;;5069405;28;20477;-68
2023/08/18 00:58:42;;;;;;;5.17;4.63;;;19.00;99.90;;;;;;5069563;28;20490;-68
2023/08/18 01:01:08;;;;;;;5.60;4.70;;;18.90;99.90;;;;;;5069143;28;20474;-68
2023/08/18 01:03:35;;;;;;;3.70;3.40;;;18.90;99.90;;;;;;5069754;28;20456;-68
2023/08/18 01:06:03;;;;;;;3.93;3.53;;;18.90;99.90;;;;;;5069447;28;20464;-68
2023/08/18 01:08:30;;;;;;;5.10;4.07;;;18.80;99.90;;;;;;5069261;28;20455;-68
2023/08/18 01:11:05;;;;;;;5.30;4.63;;;18.80;99.90;;;;;;5069225;28;20459;-67
2023/08/18 01:13:39;;;;;;;4.37;3.97;;;18.80;99.90;;;;;;5069561;28;20460;-68
2023/08/18 01:16:15;;;;;;;4.63;4.23;;;18.70;99.90;;;;;;5069212;28;20482;-68
2023/08/18 01:18:43;;;;;;;5.93;4.50;;;18.70;99.90;;;;;;5069387;28;20483;-68
2023/08/18 01:21:12;;;;;;;4.43;4.03;;;18.60;99.90;;;;;;5068807;28;20481;-67
2023/08/18 01:23:41;;;;;;;4.20;3.80;;;18.60;99.90;;;;;;5069547;28;20886;-68
2023/08/18 01:26:08;;;;;;;4.77;3.80;;;18.60;99.90;;;;;;5069159;28;20866;-68
2023/08/18 01:28:35;;;;;;;4.97;4.23;;;18.50;99.90;;;;;;5069281;28;20850;-68
2023/08/18 01:31:06;;;;;;;3.80;3.50;;;18.50;99.90;;;;;;5068929;28;20482;-67
2023/08/18 01:33:37;;;;;;;5.17;3.93;;;18.50;99.90;;;;;;5069624;28;20465;-68
2023/08/18 01:36:06;;;;;;;5.87;4.00;;;18.50;99.90;;;;;;5069112;28;21186;-68
2023/08/18 01:38:35;;;;;;;3.87;3.57;;;18.50;99.90;;;;;;5068917;28;20483;-68
2023/08/18 01:41:06;;;;;;;4.20;3.80;;;18.50;99.90;;;;;;5071306;28;20468;-68
2023/08/18 01:43:33;;;;;;;3.83;3.37;;;18.50;99.90;;;;;;5072868;28;20465;-68
2023/08/18 01:46:01;;;;;;;4.90;3.93;;;18.50;99.90;;;;;;5072720;28;20518;-68
2023/08/18 01:48:28;;;;;;;4.37;3.70;;;18.40;99.90;;;;;;5072420;28;20494;-68
2023/08/18 01:50:55;;;;;;;4.13;3.73;;;18.40;99.90;;;;;;5072423;28;20451;-68
2023/08/18 01:53:22;;;;;;;6.77;3.80;;;18.40;99.90;;;;;;5072389;28;20461;-68
2023/08/18 01:55:48;;;;;;;5.50;4.17;;;18.40;99.90;;;;;;5072673;28;20486;-68
2023/08/18 01:58:17;;;;;;;5.93;3.83;;;18.30;99.90;;;;;;5071953;28;20458;-68
2023/08/18 02:00:43;;;;;;;5.07;3.73;;;18.30;99.90;;;;;;5072268;28;20471;-67
2023/08/18 02:03:10;;;;;;;4.43;3.73;;;18.30;99.90;;;;;;5072252;28;20830;-68
2023/08/18 02:05:39;;;;;;;5.53;3.60;;;18.20;99.90;;;;;;5072604;28;20466;-68
2023/08/18 02:08:06;;;;;;;8.80;4.20;;;18.20;99.90;;;;;;5072057;28;20489;-68
2023/08/18 02:10:33;;;;;;;4.20;3.70;;;18.20;99.90;;;;;;5071800;28;20510;-68
2023/08/18 02:13:00;;;;;;;4.80;4.30;;;18.10;99.90;;;;;;5072162;28;20486;-68
2023/08/18 02:15:28;;;;;;;4.57;4.10;;;18.10;99.90;;;;;;5072126;28;20479;-68
2023/08/18 02:17:55;;;;;;;4.03;3.70;;;18.10;99.90;;;;;;5072299;28;20451;-68
2023/08/18 02:20:21;;;;;;;5.07;3.47;;;18.00;99.90;;;;;;5071506;28;20486;-68
2023/08/18 02:22:48;;;;;;;4.53;3.93;;;18.00;99.90;;;;;;5072128;28;20466;-67
2023/08/18 02:25:15;;;;;;;4.27;3.87;;;18.00;99.90;;;;;;5071787;28;20954;-68
2023/08/18 02:27:41;;;;;;;4.00;3.60;;;18.00;99.90;;;;;;5071883;28;20462;-68
2023/08/18 02:30:09;;;;;;;4.20;3.90;;;18.00;99.90;;;;;;5071372;28;20841;-67
2023/08/18 02:32:37;;;;;;;4.30;3.90;;;17.90;99.90;;;;;;5068909;28;20462;-68
2023/08/18 02:35:04;;;;;;;4.03;3.63;;;17.90;99.90;;;;;;5071576;28;20451;-67
2023/08/18 02:37:31;;;;;;;5.27;4.00;;;17.90;99.90;;;;;;5055709;28;20964;-68
2023/08/18 02:39:58;;;;;;;4.93;4.10;;;17.80;99.90;;;;;;5071388;28;20568;-67
2023/08/18 02:42:25;;;;;;;3.70;3.40;;;17.80;99.90;;;;;;5071625;28;20463;-67
2023/08/18 02:44:51;;;;;;;3.67;3.37;;;17.80;99.90;;;;;;5071717;28;20454;-67
2023/08/18 02:47:18;;;;;;;5.90;3.97;;;17.80;99.90;;;;;;5071175;28;20462;-67
2023/08/18 02:49:47;;;;;;;4.23;3.47;;;17.80;99.90;;;;;;5071079;28;20482;-67
2023/08/18 02:52:14;;;;;;;6.10;4.20;;;17.70;99.90;;;;;;5070770;28;20457;-67
2023/08/18 02:54:41;;;;;;;3.87;3.47;;;17.70;99.90;;;;;;5071669;28;20462;-67
2023/08/18 02:57:07;;;;;;;4.17;3.67;;;17.70;99.90;;;;;;5071031;28;20993;-68
2023/08/18 02:59:34;;;;;;;4.30;3.90;;;17.60;99.90;;;;;;5071035;28;20489;-68
2023/08/18 03:02:01;;;;;;;4.47;4.00;;;17.60;99.90;;;;;;5071434;28;20459;-68
2023/08/18 03:04:27;;;;;;;4.43;4.00;;;17.60;99.90;;;;;;5070836;28;20466;-67
2023/08/18 03:06:56;;;;;;;5.00;3.87;;;17.60;99.90;;;;;;5071235;28;20459;-68
2023/08/18 03:09:22;;;;;;;3.80;3.50;;;17.50;99.90;;;;;;5070507;28;20474;-68
2023/08/18 03:11:50;;;;;;;3.93;3.60;;;17.50;99.90;;;;;;5071198;28;20463;-67
2023/08/18 03:14:17;;;;;;;5.67;3.40;;;17.50;99.90;;;;;;5070963;28;20459;-68
2023/08/18 03:16:44;;;;;;;6.93;3.60;;;17.50;99.90;;;;;;5070923;28;20479;-67
2023/08/18 03:19:11;;;;;;;4.60;3.60;;;17.40;99.90;;;;;;5070728;28;20478;-67
2023/08/18 03:21:38;;;;;;;5.00;3.90;;;17.40;99.90;;;;;;5070783;28;20462;-67
2023/08/18 03:24:06;;;;;;;4.87;3.60;;;17.30;99.90;;;;;;5070926;28;20459;-67
2023/08/18 03:26:33;;;;;;;4.00;3.33;;;17.30;99.90;;;;;;5070472;28;20451;-67
2023/08/18 03:29:00;;;;;;;4.10;3.63;;;17.30;99.90;;;;;;5070865;28;20486;-67
2023/08/18 03:31:26;;;;;;;3.67;3.00;;;17.30;99.90;;;;;;5054975;28;20456;-67
2023/08/18 03:33:53;;;;;;;4.40;3.97;;;17.20;99.90;;;;;;5048819;28;20459;-67
2023/08/18 03:36:20;;;;;;;3.40;3.10;;;17.20;99.90;;;;;;5130480;22;21076;-74
2023/08/18 03:38:47;;;;;;;3.63;3.33;;;17.20;99.90;;;;;;5063767;28;20470;-74
2023/08/18 03:41:15;;;;;;;4.10;3.30;;;17.10;99.90;;;;;;5066051;28;20450;-74
2023/08/18 03:43:42;;;;;;;4.30;3.90;;;17.10;99.90;;;;;;5069929;28;20931;-73
2023/08/18 03:46:21;;;;;;;4.00;2.77;;;17.10;99.90;;;;;;5068985;28;20538;-73
2023/08/18 03:48:48;;;;;;;3.60;3.30;;;17.00;99.90;;;;;;5067724;28;20479;-74
2023/08/18 03:51:15;;;;;;;3.80;3.10;;;17.00;99.90;;;;;;5068452;28;20512;-73
2023/08/18 03:53:43;;;;;;;3.90;3.60;;;17.00;99.90;;;;;;5068814;28;20513;-73
2023/08/18 03:56:10;;;;;;;3.53;3.23;;;17.00;99.90;;;;;;5068960;28;20540;-73
2023/08/18 03:58:38;;;;;;;4.60;3.13;;;17.00;99.90;;;;;;5069107;28;21009;-73
2023/08/18 04:01:06;;;;;;;3.60;3.30;;;17.00;99.90;;;;;;5069091;28;20455;-73
2023/08/18 04:03:34;;;;;;;4.00;3.60;;;17.00;99.90;;;;;;5068076;28;20516;-73
2023/08/18 04:06:01;;;;;;;4.10;3.70;;;17.00;99.90;;;;;;5069759;28;20458;-73
2023/08/18 04:08:28;;;;;;;4.87;3.80;;;16.90;99.90;;;;;;5069136;28;20475;-73
2023/08/18 04:10:54;;;;;;;5.47;3.63;;;16.90;99.90;;;;;;5069436;28;20469;-73
2023/08/18 04:13:21;;;;;;;4.60;3.70;;;16.90;99.90;;;;;;5069314;28;20470;-73
2023/08/18 04:15:49;;;;;;;3.63;3.33;;;16.90;99.90;;;;;;5069578;28;20459;-73
2023/08/18 04:18:16;;;;;;;8.90;4.27;;;16.90;99.90;;;;;;5068839;28;20968;-73
2023/08/18 04:20:42;;;;;;;3.97;3.57;;;16.90;99.90;;;;;;5069963;28;20946;-73
2023/08/18 04:23:09;;;;;;;3.77;3.47;;;16.90;99.90;;;;;;5069485;28;20459;-73
2023/08/18 04:25:36;;;;;;;3.90;3.50;;;17.00;99.90;;;;;;5069361;28;20455;-74
2023/08/18 04:28:09;;;;;;;4.13;3.40;;;17.00;99.90;;;;;;5068914;28;20455;-74
2023/08/18 04:30:37;;;;;;;5.27;3.83;;;17.10;99.90;;;;;;5069085;28;20478;-73
2023/08/18 04:33:06;;;;;;;4.97;3.40;;;17.00;99.90;;;;;;5069522;28;20980;-74
2023/08/18 04:35:33;;;;;;;3.67;3.00;;;17.10;99.90;;;;;;5069702;28;20469;-73
2023/08/18 04:37:59;;;;;;;3.13;2.83;;;17.10;99.90;;;;;;5069583;28;20505;-73
2023/08/18 04:40:26;;;;;;;3.97;3.57;;;17.20;99.90;;;;;;5069373;28;20479;-73
2023/08/18 04:42:53;;;;;;;3.53;3.17;;;17.10;99.90;;;;;;5069897;28;20455;-73
2023/08/18 04:45:19;;;;;;;3.20;2.90;;;17.20;99.90;;;;;;5069287;28;20977;-73
2023/08/18 04:47:47;;;;;;;3.53;3.10;;;17.20;99.90;;;;;;5069544;28;20462;-74
2023/08/18 04:50:15;;;;;;;3.77;3.47;;;17.20;99.90;;;;;;5069283;28;20486;-73
2023/08/18 04:52:42;;;;;;;4.00;3.60;;;17.20;99.90;;;;;;5069980;28;20454;-73
2023/08/18 04:55:09;;;;;;;4.88;3.30;;;17.20;99.90;;;;;;5069310;28;20814;-72
2023/08/18 04:57:36;;;;;;;2.93;2.70;;;17.20;99.90;;;;;;5069307;28;20227;-73
2023/08/18 05:00:04;;;;;;;3.23;2.93;;;17.30;99.90;;;;;;5069209;28;20574;-72
2023/08/18 05:02:31;;;;;;;4.67;3.13;;;17.30;99.90;;;;;;5069533;28;20455;-73
2023/08/18 05:04:58;;;;;;;3.77;2.70;;;17.30;99.90;;;;;;5069505;28;20462;-72
2023/08/18 05:07:26;;;;;;;8.33;3.77;;;17.30;99.90;;;;;;5069325;28;20458;-72
2023/08/18 05:09:53;;;;;;;3.20;2.90;;;17.30;99.90;;;;;;5069402;28;20978;-72
2023/08/18 05:12:20;;;;;;;3.50;3.20;;;17.30;99.90;;;;;;5069583;28;20461;-71
2023/08/18 05:14:47;;;;;;;3.77;3.40;;;17.30;99.90;;;;;;5070283;28;20451;-69
2023/08/18 05:17:14;;;;;;;3.67;3.37;;;17.40;99.90;;;;;;5073408;28;20479;-72
2023/08/18 05:19:40;;;;;;;3.47;3.17;;;17.40;99.90;;;;;;5066969;28;20486;-72
2023/08/18 05:22:07;;;;;;;3.67;3.27;;;17.40;99.90;;;;;;5071335;28;20941;-72
2023/08/18 05:24:35;;;;;;;3.33;3.03;;;17.50;99.90;;;;;;5072192;28;20461;-72
2023/08/18 05:27:02;;;;;;;5.43;3.03;;;17.50;99.90;;;;;;5071290;28;20455;-73
2023/08/18 05:29:29;;;;;;;3.40;3.10;;;17.60;99.90;;;;;;5070751;28;20482;-73
2023/08/18 05:31:56;;;;;;;2.70;2.50;;;17.60;99.90;;;;;;5072246;28;20549;-72
2023/08/18 05:34:24;;;;;;;3.60;2.87;;;17.70;99.90;;;;;;5071360;28;20467;-72
2023/08/18 05:36:51;;;;;;;3.07;2.70;;;17.70;99.90;;;;;;5071814;28;20482;-73
2023/08/18 05:39:18;;;;;;;4.27;2.83;;;17.70;99.90;;;;;;5071276;28;20531;-73
2023/08/18 05:41:46;;;;;;;3.00;2.80;;;17.80;99.90;;;;;;5071539;28;20467;-73
2023/08/18 05:44:13;;;;;;;4.00;3.60;;;17.90;99.90;;;;;;5071995;28;20469;-72
2023/08/18 05:46:41;;;;;;;3.63;3.17;;;17.90;99.90;;;;;;5072015;28;20466;-73
2023/08/18 05:49:09;;;;;;;3.83;3.37;;;18.00;99.90;;;;;;5071872;28;20479;-71
2023/08/18 05:51:42;;;;;;;5.23;3.27;;;18.10;99.90;;;;;;5071444;28;20473;-71
2023/08/18 05:54:10;;;;;;;2.77;2.57;;;18.10;99.90;;;;;;5072476;28;20465;-71
2023/08/18 05:56:37;;;;;;;3.20;2.90;;;18.20;99.90;;;;;;5071300;28;20482;-70
2023/08/18 05:59:06;;;;;;;3.23;2.93;;;18.30;99.90;;;;;;5072368;28;20497;-73
2023/08/18 06:01:33;;;;;;;4.30;3.20;;;18.30;99.90;;;;;;5071602;28;20463;-73
2023/08/18 06:04:00;;;;;;;3.50;3.20;;;18.40;99.90;;;;;;5071111;28;20512;-72
2023/08/18 06:06:28;;;;;;;3.90;2.93;;;18.40;99.90;;;;;;5071517;28;20454;-73
2023/08/18 06:08:55;;;;;;;3.07;2.87;;;18.50;99.90;;;;;;5072163;28;20566;-73
2023/08/18 06:11:23;;;;;;;4.17;3.80;;;18.60;99.90;;;;;;5071077;28;20491;-73
2023/08/18 06:13:50;;;;;;;3.93;3.20;;;18.70;99.90;;;;;;5072014;28;20577;-73
2023/08/18 06:16:19;;;;;;;3.10;2.77;;;18.70;99.90;;;;;;5071544;28;20463;-70
2023/08/18 06:18:46;;;;;;;3.07;2.77;;;18.80;99.90;;;;;;5071312;28;20510;-72
2023/08/18 06:21:13;;;;;;;4.33;3.03;;;18.90;99.90;;;;;;5071521;28;20901;-73
2023/08/18 06:23:40;;;;;;;4.73;2.93;;;19.00;99.90;;;;;;5071990;28;20459;-70
2023/08/18 06:26:07;;;;;;;3.37;3.07;;;19.10;99.90;;;;;;5070651;28;20559;-73
2023/08/18 06:28:34;;;;;;;3.47;2.90;;;19.10;99.90;;;;;;5070418;28;20456;-70
2023/08/18 06:31:04;;;;;;;3.97;3.00;;;19.20;99.90;;;;;;5071306;28;20469;-70
2023/08/18 06:33:34;;;;;;;4.33;2.90;;;19.20;99.90;;;;;;5070613;28;20463;-70
2023/08/18 06:36:01;;;;;;;4.37;4.00;;;19.30;99.90;;;;;;5071619;28;20459;-72
2023/08/18 06:38:28;;;;;;;4.60;2.90;;;19.30;99.90;;;;;;5070689;28;20467;-70
2023/08/18 06:40:55;;;;;;;3.40;2.80;;;19.40;99.90;;;;;;5070503;28;20506;-70
2023/08/18 06:43:21;;;;;;;3.07;2.77;;;19.40;99.90;;;;;;5070894;28;20969;-73
2023/08/18 06:45:48;;;;;;;4.93;3.30;;;19.50;99.90;;;;;;5071132;28;20957;-73
2023/08/18 06:48:15;;;;;;;3.73;3.10;;;19.60;99.90;;;;;;5069786;28;20451;-73
2023/08/18 06:50:43;;;;;;;3.43;3.00;;;19.70;99.90;;;;;;5071384;28;20943;-73
2023/08/18 06:53:10;;;;;;;3.70;2.43;;;19.80;99.90;;;;;;5071525;28;20475;-73
2023/08/18 06:55:37;;;;;;;2.80;2.60;;;20.00;99.90;;;;;;5070710;28;20458;-72
2023/08/18 06:58:04;;;;;;;4.30;2.63;;;20.10;99.90;;;;;;5071404;28;20475;-73
2023/08/18 07:00:31;;;;;;;3.30;2.83;;;20.10;99.90;;;;;;5070862;28;21052;-72
2023/08/18 07:02:58;;;;;;;3.83;2.70;;;20.30;99.90;;;;;;5070729;28;20470;-72
2023/08/18 07:05:26;;;;;;;3.07;2.77;;;20.40;99.90;;;;;;5071330;28;20459;-72
2023/08/18 07:07:54;;;;;;;3.73;2.33;;;20.50;99.90;;;;;;5071241;28;20457;-73
2023/08/18 07:10:21;;;;;;;3.03;2.73;;;20.60;99.90;;;;;;5070004;28;20500;-72
2023/08/18 07:12:48;;;;;;;2.63;2.40;;;20.70;99.90;;;;;;5071072;28;20529;-73
2023/08/18 07:15:14;;;;;;;2.50;2.30;;;20.80;99.90;;;;;;5071089;28;20453;-72
2023/08/18 07:17:41;;;;;;;3.67;2.40;;;20.90;99.90;;;;;;5070683;28;20482;-72
2023/08/18 07:20:10;;;;;;;3.37;2.60;;;21.00;99.90;;;;;;5070691;28;20471;-73
2023/08/18 07:22:37;;;;;;;2.40;2.20;;;21.00;99.90;;;;;;5070557;28;20570;-73
2023/08/18 07:25:06;;;;;;;4.53;3.20;;;21.10;99.90;;;;;;5070831;28;20454;-72
2023/08/18 07:27:33;;;;;;;3.87;2.60;;;21.20;99.90;;;;;;5070696;28;20934;-72
2023/08/18 07:30:00;;;;;;;4.00;2.90;;;21.30;99.90;;;;;;5070619;28;20478;-72
2023/08/18 07:32:26;;;;;;;3.53;3.23;;;21.40;99.90;;;;;;5070802;28;20463;-73
2023/08/18 07:34:53;;;;;;;3.50;3.20;;;21.50;99.90;;;;;;5070286;28;20466;-73
2023/08/18 07:37:20;;;;;;;3.57;3.00;;;21.50;99.90;;;;;;5070347;28;20497;-72
2023/08/18 07:39:46;;;;;;;3.00;2.70;;;21.60;99.90;;;;;;5069805;28;20484;-73
2023/08/18 07:42:16;;;;;;;3.77;3.20;;;21.70;99.90;;;;;;5070629;28;21021;-72
2023/08/18 07:44:43;;;;;;;3.30;3.00;;;21.80;99.90;;;;;;5070780;28;20461;-73
2023/08/18 07:47:10;;;;;;;3.67;2.93;;;21.90;99.90;;;;;;5070277;28;20462;-73
2023/08/18 07:49:36;;;;;;;4.47;2.70;;;21.90;99.90;;;;;;5069735;28;20482;-73
2023/08/18 07:52:04;;;;;;;3.27;2.67;;;22.00;99.90;;;;;;5070647;28;20489;-72
2023/08/18 07:54:31;;;;;;;4.57;3.00;;;22.10;99.90;;;;;;5070067;28;20455;-72
2023/08/18 07:56:58;;;;;;;3.30;3.00;;;22.20;99.90;;;;;;5070107;28;20463;-73
2023/08/18 07:59:26;;;;;;;3.20;2.90;;;22.20;99.90;;;;;;5069442;28;20481;-73
2023/08/18 08:01:53;;;;;;;2.90;2.67;;;22.30;99.90;;;;;;5069984;28;20844;-72
2023/08/18 08:04:20;;;;;;;3.10;2.77;;;22.30;99.90;;;;;;5070056;28;20954;-72
2023/08/18 08:06:47;;;;;;;3.47;2.60;;;22.30;99.90;;;;;;5070138;28;20468;-72
2023/08/18 08:09:14;;;;;;;3.30;3.00;;;22.40;99.90;;;;;;5069929;28;20476;-72
2023/08/18 08:11:41;;;;;;;3.47;2.83;;;22.60;99.90;;;;;;5069929;28;20460;-72
2023/08/18 08:14:08;;;;;;;3.93;2.90;;;22.60;99.90;;;;;;5070090;28;20463;-72
2023/08/18 08:16:36;;;;;;;2.80;2.60;;;22.70;99.90;;;;;;5069608;28;20856;-73
2023/08/18 08:19:04;;;;;;;2.37;2.23;;;22.80;99.90;;;;;;5061843;28;20475;-73
2023/08/18 08:21:31;;;;;;;3.30;2.83;;;23.00;99.90;;;;;;5070032;28;20503;-72
2023/08/18 08:23:58;;;;;;;6.37;4.03;;;23.10;99.90;;;;;;5069829;28;20457;-72
2023/08/18 08:26:24;;;;;;;5.60;4.17;;;23.20;99.90;;;;;;5069783;28;20506;-72
2023/08/18 08:28:51;;;;;;;3.23;2.43;;;23.30;99.90;;;;;;5070082;28;20491;-72
2023/08/18 08:31:18;;;;;;;2.73;2.50;;;23.40;99.90;;;;;;5069608;28;20985;-73
2023/08/18 08:33:46;;;;;;;3.40;3.10;;;23.50;99.90;;;;;;5070449;28;20472;-73
2023/08/18 08:36:13;;;;;;;2.87;2.67;;;23.60;99.90;;;;;;5069792;28;20471;-73
2023/08/18 08:38:39;;;;;;;2.40;2.20;;;23.70;99.90;;;;;;5069760;28;20482;-74
2023/08/18 08:41:07;;;;;;;3.07;2.80;;;23.80;99.90;;;;;;5070444;28;20985;-73
2023/08/18 08:43:34;;;;;;;4.27;2.90;;;24.00;99.90;;;;;;5070040;28;20465;-73
2023/08/18 08:46:01;;;;;;;2.80;2.50;;;24.10;99.90;;;;;;5069722;28;20968;-73
2023/08/18 08:48:33;;;;;;;3.70;2.70;;;24.20;99.90;;;;;;5069567;28;20454;-73
2023/08/18 08:51:05;;;;;;;3.33;2.33;;;24.40;99.90;;;;;;5072429;28;20459;-72
2023/08/18 08:53:38;;;;;;;5.70;2.80;;;24.50;99.90;;;;;;5074175;28;21011;-72
2023/08/18 08:56:07;;;;;;;3.10;2.90;;;24.70;99.90;;;;;;5074008;28;20831;-73
2023/08/18 08:58:34;;;;;;;4.20;2.70;;;24.80;99.90;;;;;;5073420;28;20474;-73
2023/08/18 09:01:01;;;;;;;2.43;2.23;;;25.00;99.90;;;;;;5073063;28;20466;-73
2023/08/18 09:03:29;;;;;;;3.67;2.83;;;25.10;99.90;;;;;;5073718;28;20458;-72
2023/08/18 09:05:56;;;;;;;2.60;2.40;;;25.20;99.90;;;;;;5073611;28;20826;-73
2023/08/18 09:08:24;;;;;;;2.17;1.97;;;25.30;99.90;;;;;;5073082;28;20458;-72
2023/08/18 09:10:51;;;;;;;2.23;1.93;;;25.40;99.90;;;;;;5073263;28;20455;-72
2023/08/18 09:13:18;;;;;;;3.00;1.90;;;25.50;99.90;;;;;;5073349;28;20465;-73
2023/08/18 09:15:45;;;;;;;4.77;2.20;;;25.60;99.90;;;;;;5073423;28;20447;-73
2023/08/18 09:18:13;;;;;;;3.30;2.10;;;25.60;99.90;;;;;;5073638;28;20482;-73
2023/08/18 09:20:41;;;;;;;2.07;1.87;;;25.70;99.90;;;;;;5073668;28;20458;-73
2023/08/18 09:23:08;;;;;;;2.63;2.00;;;25.80;99.90;;;;;;5073448;28;20451;-72
2023/08/18 09:25:37;;;;;;;2.00;1.80;;;25.90;99.90;;;;;;5073613;28;20545;-73
2023/08/18 09:28:05;;;;;;;2.60;2.40;;;26.10;99.90;;;;;;5073815;28;20481;-73
2023/08/18 09:30:33;;;;;;;2.63;2.00;;;26.20;99.90;;;;;;5073092;28;20478;-72
2023/08/18 09:33:01;;;;;;;2.20;1.87;;;26.30;99.90;;;;;;5073523;28;20516;-73
2023/08/18 09:35:32;;;;;;;2.47;2.23;;;26.40;99.90;;;;;;5072575;28;20588;-72
2023/08/18 09:37:59;;;;;;;2.37;2.13;;;26.40;99.90;;;;;;5072628;28;20503;-72
2023/08/18 09:40:26;;;;;;;3.40;2.23;;;26.60;99.90;;;;;;5072496;28;20553;-73
2023/08/18 09:42:55;;;;;;;2.73;2.20;;;26.70;99.90;;;;;;5073154;28;20455;-73
2023/08/18 09:45:23;;;;;;;3.07;1.97;;;26.80;99.90;;;;;;5072908;28;20462;-73
2023/08/18 09:47:54;;;;;;;2.23;1.97;;;26.90;99.90;;;;;;5072756;28;20455;-73
2023/08/18 09:50:24;;;;;;;3.70;2.40;;;27.00;99.90;;;;;;5072143;28;20481;-73
2023/08/18 09:52:54;;;;;;;3.30;2.37;;;27.10;99.90;;;;;;5072715;28;20462;-74
2023/08/18 09:55:26;;;;;;;2.77;1.90;;;27.20;99.90;;;;;;5073045;28;20451;-73
2023/08/18 09:58:02;;;;;;;2.57;2.10;;;27.30;99.90;;;;;;5072817;28;20485;-73
2023/08/18 10:00:31;;;;;;;3.40;1.67;;;27.40;99.90;;;;;;5071214;28;20561;-72
2023/08/18 10:03:03;;;;;;;1.90;1.77;;;27.50;99.90;;;;;;5071181;28;20459;-72
2023/08/18 10:05:30;;;;;;;2.20;2.00;;;27.60;99.90;;;;;;5072485;28;20462;-73
2023/08/18 10:07:57;;;;;;;2.27;1.97;;;27.80;99.90;;;;;;5071978;28;20450;-73
2023/08/18 10:10:25;;;;;;;2.90;2.13;;;27.90;99.90;;;;;;5071887;28;20481;-73
2023/08/18 10:12:52;;;;;;;2.07;1.87;;;28.10;99.90;;;;;;5071718;28;20545;-73
2023/08/18 10:15:21;;;;;;;3.70;2.03;;;28.00;99.90;;;;;;5071986;28;20466;-73
2023/08/18 10:17:48;;;;;;;2.63;1.80;;;28.10;99.90;;;;;;5072333;28;20474;-73
2023/08/18 10:20:15;;;;;;;6.93;2.50;;;28.20;99.90;;;;;;5071931;28;20471;-73
2023/08/18 10:22:43;;;;;;;2.43;2.10;;;28.20;99.90;;;;;;5071807;28;20451;-73
2023/08/18 10:25:10;;;;;;;3.30;2.03;;;28.30;99.90;;;;;;5071786;28;20601;-73
2023/08/18 10:27:39;;;;;;;2.30;1.90;;;28.40;99.90;;;;;;5072083;28;20458;-73
2023/08/18 10:30:27;;;;;;;2.20;2.00;;;28.50;99.90;;;;;;5071740;28;21000;-73
2023/08/18 10:33:03;;;;;;;2.33;2.10;;;28.60;99.90;;;;;;5072401;28;20458;-73
2023/08/18 10:35:30;;;;;;;7.53;2.27;;;28.80;99.90;;;;;;5070411;28;20462;-73
2023/08/18 10:37:59;;;;;;;2.17;1.97;;;28.90;99.90;;;;;;5070052;28;20482;-72
2023/08/18 10:40:27;;;;;;;2.93;2.10;;;29.10;99.90;;;;;;5070890;28;20482;-73
2023/08/18 10:43:02;;;;;;;1.83;1.47;;;29.20;99.90;;;;;;5070880;28;20459;-73
2023/08/18 10:45:31;;;;;;;2.50;2.30;;;29.20;99.90;;;;;;5069996;28;21093;-73
2023/08/18 10:47:59;;;;;;;2.40;1.90;;;29.40;99.90;;;;;;5070312;28;20888;-72
2023/08/18 10:50:28;;;;;;;2.30;2.03;;;29.40;99.90;;;;;;5069880;28;20918;-73
2023/08/18 10:52:55;;;;;;;3.63;1.93;;;29.50;99.90;;;;;;5069795;28;20451;-72
2023/08/18 10:55:22;;;;;;;3.37;2.10;;;29.60;99.90;;;;;;5070567;28;20462;-72
2023/08/18 10:57:49;;;;;;;2.57;2.10;;;29.70;99.90;;;;;;5070546;28;20460;-73
2023/08/18 11:00:18;;;;;;;4.13;1.90;;;29.80;99.90;;;;;;5070070;28;20475;-73
2023/08/18 11:02:47;;;;;;;2.10;1.60;;;29.80;99.90;;;;;;5070845;28;20471;-73
2023/08/18 11:05:14;;;;;;;2.10;1.90;;;29.80;99.90;;;;;;5071095;28;20542;-73
2023/08/18 11:07:41;;;;;;;1.87;1.67;;;29.80;99.90;;;;;;5069276;28;20459;-73
2023/08/18 11:10:18;;;;;;;2.03;1.67;;;29.90;99.90;;;;;;5070500;28;20485;-72
2023/08/18 11:12:46;;;;;;;2.13;1.93;;;29.90;99.90;;;;;;5070650;28;20481;-73
2023/08/18 11:15:14;;;;;;;1.90;1.70;;;30.00;99.90;;;;;;5068604;28;20961;-73
2023/08/18 11:20:12;;;;;;;2.47;1.60;;;29.90;99.90;;;;;;5021367;28;20492;-68
2023/08/18 11:22:40;;;;;;;1.90;1.80;;;30.10;99.90;;;;;;5025019;28;20464;-68
2023/08/18 11:25:09;;;;;;;1.93;1.80;;;30.30;99.90;;;;;;5021214;28;20846;-69
2023/08/18 11:27:40;;;;;;;2.83;2.10;;;30.40;99.90;;;;;;5036014;28;20478;-69
2023/08/18 11:30:09;;;;;;;2.50;2.10;;;30.50;99.90;;;;;;5050509;28;21078;-69
2023/08/18 11:32:36;;;;;;;1.77;1.63;;;30.60;99.90;;;;;;5051141;28;21131;-69
2023/08/18 11:35:04;;;;;;;4.00;2.33;;;30.70;99.90;;;;;;5050715;28;20458;-69
2023/08/18 11:37:32;;;;;;;3.43;1.97;;;30.80;99.90;;;;;;5050548;28;20494;-70
2023/08/18 11:40:00;;;;;;;2.27;2.07;;;30.90;99.90;;;;;;5047139;28;20853;-69
2023/08/18 11:42:27;;;;;;;3.10;1.97;;;30.90;99.90;;;;;;5032268;28;20481;-69
2023/08/18 11:44:55;;;;;;;2.00;1.90;;;30.90;99.90;;;;;;5049326;28;20459;-69
2023/08/18 11:47:23;;;;;;;4.50;3.00;;;31.00;99.90;;;;;;5049787;28;20464;-69
2023/08/18 11:49:51;;;;;;;1.60;1.50;;;31.00;99.90;;;;;;5049528;28;20480;-69
2023/08/18 11:52:18;;;;;;;5.00;2.03;;;31.10;99.90;;;;;;5049610;28;20452;-68
2023/08/18 11:54:46;;;;;;;5.50;2.93;;;31.10;99.90;;;;;;5024238;28;20864;-69
2023/08/18 11:57:14;;;;;;;2.63;2.40;;;31.20;99.90;;;;;;5020727;28;20468;-69
2023/08/18 11:59:46;;;;;;;2.57;2.27;;;31.20;99.90;;;;;;5029869;28;20511;-68
2023/08/18 12:02:19;;;;;;;4.30;2.70;;;31.30;99.90;;;;;;5030371;28;20449;-68
2023/08/18 12:04:46;;;;;;;2.07;1.87;;;31.40;99.90;;;;;;5021867;28;20457;-69
2023/08/18 12:07:13;;;;;;;2.17;1.97;;;31.50;99.90;;;;;;5030083;28;20956;-69
2023/08/18 12:09:39;;;;;;;2.73;2.10;;;31.50;99.90;;;;;;5021859;28;20484;-69
2023/08/18 12:12:15;;;;;;;2.53;1.70;;;31.70;99.90;;;;;;5029994;28;20492;-69
2023/08/18 12:14:42;;;;;;;2.00;1.80;;;31.70;99.90;;;;;;5021574;28;20880;-69
2023/08/18 12:17:09;;;;;;;2.20;1.90;;;31.70;99.90;;;;;;5020597;28;20951;-69
2023/08/18 12:19:36;;;;;;;2.07;1.83;;;31.60;99.90;;;;;;5027746;28;20746;-69
2023/08/18 12:22:03;;;;;;;1.80;1.63;;;31.60;99.90;;;;;;5028235;28;20848;-69
2023/08/18 12:24:30;;;;;;;1.90;1.70;;;31.70;99.90;;;;;;5027546;28;20562;-69
2023/08/18 12:26:56;;;;;;;2.60;1.80;;;31.80;99.90;;;;;;5027075;28;20471;-69
2023/08/18 12:29:24;;;;;;;2.10;1.90;;;32.00;99.90;;;;;;5027851;28;20495;-69
2023/08/18 12:31:51;;;;;;;1.77;1.67;;;32.00;99.90;;;;;;5028269;28;20523;-69
2023/08/18 12:34:18;;;;;;;2.67;1.90;;;32.10;99.90;;;;;;5011499;28;20457;-69
2023/08/18 12:36:44;;;;;;;2.97;1.80;;;32.00;99.90;;;;;;5022304;28;20537;-68
2023/08/18 12:39:11;;;;;;;1.90;1.70;;;31.90;99.90;;;;;;5025634;28;20483;-69
2023/08/18 12:41:38;;;;;;;3.07;2.10;;;32.00;99.90;;;;;;5023145;28;20492;-69
2023/08/18 12:44:09;;;;;;;6.73;1.83;;;32.20;99.90;;;;;;5016079;28;20504;-68
2023/08/18 12:46:37;;;;;;;3.00;1.63;;;32.30;99.90;;;;;;5019894;28;20460;-69
2023/08/18 12:49:05;;;;;;;1.40;1.30;;;32.30;99.90;;;;;;5027178;28;20492;-68
2023/08/18 12:51:32;;;;;;;2.70;2.27;;;32.40;99.90;;;;;;5020073;28;20464;-68
2023/08/18 12:53:59;;;;;;;1.87;1.70;;;32.40;99.90;;;;;;5027799;28;20846;-69